Time;durP1;ratioP1;P1;durP2;ratioP2;P2;SDS_P1;SDS_P2;PMS_P1;PMS_P2;Temp;Humidity;BMP_temperature;BMP_pressure;BME280_temperature;BME280_humidity;BME280_pressure;Samples;Min_cycle;Max_cycle;Signal;HPM_P1;HPM_P2
2019/09/04 00:01:26;;;;;;;8;4.9;;;;;;;;;;;;;
2019/09/04 00:03:51;;;;;;;9.7;4.6;;;;;;;;;;;;;
2019/09/04 00:06:19;;;;;;;7.4;4.2;;;;;;;;;;;;;
2019/09/04 00:08:42;;;;;;;5.3;4.4;;;;;;;;;;;;;
2019/09/04 00:11:22;;;;;;;8.8;5.1;;;;;;;;;;;;;
2019/09/04 00:13:44;;;;;;;7.1;5.2;;;;;;;;;;;;;
2019/09/04 00:16:10;;;;;;;6.2;4.6;;;;;;;;;;;;;
2019/09/04 00:20:59;;;;;;;7.4;4.9;;;;;;;;;;;;;
2019/09/04 00:23:27;;;;;;;8.2;5.1;;;;;;;;;;;;;
2019/09/04 00:25:53;;;;;;;7;5;;;;;;;;;;;;;
2019/09/04 00:28:22;;;;;;;6.1;4.6;;;;;;;;;;;;;
2019/09/04 00:30:46;;;;;;;6.2;4.3;;;;;;;;;;;;;
2019/09/04 00:33:11;;;;;;;7.9;4.7;;;;;;;;;;;;;
2019/09/04 00:35:42;;;;;;;5.8;4.1;;;;;;;;;;;;;
2019/09/04 00:38:04;;;;;;;7;4.7;;;;;;;;;;;;;
2019/09/04 00:40:31;;;;;;;10.8;5;;;;;;;;;;;;;
2019/09/04 00:43:00;;;;;;;6.4;5.1;;;;;;;;;;;;;
2019/09/04 00:45:22;;;;;;;7.8;5.2;;;;;;;;;;;;;
2019/09/04 00:47:54;;;;;;;7.8;5.1;;;;;;;;;;;;;
2019/09/04 00:50:19;;;;;;;9;5.5;;;;;;;;;;;;;
2019/09/04 00:52:44;;;;;;;8.3;5.4;;;;;;;;;;;;;
2019/09/04 00:55:11;;;;;;;7.7;5;;;;;;;;;;;;;
2019/09/04 00:57:37;;;;;;;7.3;5.1;;;;;;;;;;;;;
2019/09/04 01:00:03;;;;;;;5.8;4.4;;;;;;;;;;;;;
2019/09/04 01:02:29;;;;;;;6.9;5.1;;;;;;;;;;;;;
2019/09/04 01:04:58;;;;;;;7.3;4.9;;;;;;;;;;;;;
2019/09/04 01:07:17;;;;;;;6.5;4.8;;;;;;;;;;;;;
2019/09/04 01:09:47;;;;;;;6.2;5.1;;;;;;;;;;;;;
2019/09/04 01:12:10;;;;;;;9.4;5.3;;;;;;;;;;;;;
2019/09/04 01:14:38;;;;;;;5.5;5;;;;;;;;;;;;;
2019/09/04 01:17:01;;;;;;;7.4;5.1;;;;;;;;;;;;;
2019/09/04 01:19:30;;;;;;;8.1;5.5;;;;;;;;;;;;;
2019/09/04 01:21:55;;;;;;;6;4.4;;;;;;;;;;;;;
2019/09/04 01:24:18;;;;;;;6.9;4.6;;;;;;;;;;;;;
2019/09/04 01:26:46;;;;;;;8.2;6;;;;;;;;;;;;;
2019/09/04 01:29:09;;;;;;;6.3;5;;;;;;;;;;;;;
2019/09/04 01:31:34;;;;;;;9.7;5;;;;;;;;;;;;;
2019/09/04 01:33:59;;;;;;;9.3;4.8;;;;;;;;;;;;;
2019/09/04 01:36:24;;;;;;;8.1;5.3;;;;;;;;;;;;;
2019/09/04 01:38:50;;;;;;;7.6;5.2;;;;;;;;;;;;;
2019/09/04 01:41:15;;;;;;;7.4;5.3;;;;;;;;;;;;;
2019/09/04 01:43:42;;;;;;;7.2;5.5;;;;;;;;;;;;;
2019/09/04 01:46:07;;;;;;;9.3;5.4;;;;;;;;;;;;;
2019/09/04 01:48:36;;;;;;;8.4;5.1;;;;;;;;;;;;;
2019/09/04 01:50:59;;;;;;;7.4;4.8;;;;;;;;;;;;;
2019/09/04 01:53:27;;;;;;;8.8;5.2;;;;;;;;;;;;;
2019/09/04 01:55:51;;;;;;;8.4;5.7;;;;;;;;;;;;;
2019/09/04 01:58:14;;;;;;;10.3;6.2;;;;;;;;;;;;;
2019/09/04 02:00:45;;;;;;;7.9;5.4;;;;;;;;;;;;;
2019/09/04 02:03:11;;;;;;;8;5.5;;;;;;;;;;;;;
2019/09/04 02:05:36;;;;;;;7.7;5.3;;;;;;;;;;;;;
2019/09/04 02:08:04;;;;;;;7.8;5.4;;;;;;;;;;;;;
2019/09/04 02:10:28;;;;;;;7.8;5.3;;;;;;;;;;;;;
2019/09/04 02:12:51;;;;;;;8.6;5.3;;;;;;;;;;;;;
2019/09/04 02:15:20;;;;;;;7.2;5.8;;;;;;;;;;;;;
2019/09/04 02:17:45;;;;;;;8.8;6.1;;;;;;;;;;;;;
2019/09/04 02:20:09;;;;;;;8.1;6.3;;;;;;;;;;;;;
2019/09/04 02:22:34;;;;;;;7.2;5.9;;;;;;;;;;;;;
2019/09/04 02:25:05;;;;;;;9.6;6.1;;;;;;;;;;;;;
2019/09/04 02:27:28;;;;;;;8.2;6.1;;;;;;;;;;;;;
2019/09/04 02:29:53;;;;;;;7.9;5.8;;;;;;;;;;;;;
2019/09/04 02:32:22;;;;;;;8.9;6.5;;;;;;;;;;;;;
2019/09/04 02:34:46;;;;;;;12.6;6.9;;;;;;;;;;;;;
2019/09/04 02:37:09;;;;;;;9.1;6;;;;;;;;;;;;;
2019/09/04 02:39:36;;;;;;;8.9;5.3;;;;;;;;;;;;;
2019/09/04 02:42:01;;;;;;;8.5;6.1;;;;;;;;;;;;;
2019/09/04 02:44:27;;;;;;;10.4;6.2;;;;;;;;;;;;;
2019/09/04 02:46:52;;;;;;;10.4;6;;;;;;;;;;;;;
2019/09/04 02:49:19;;;;;;;9.9;5.3;;;;;;;;;;;;;
2019/09/04 02:51:44;;;;;;;12.4;5.7;;;;;;;;;;;;;
2019/09/04 02:54:09;;;;;;;8.9;6.1;;;;;;;;;;;;;
2019/09/04 02:56:35;;;;;;;8.2;5.7;;;;;;;;;;;;;
2019/09/04 02:59:01;;;;;;;8.5;5.7;;;;;;;;;;;;;
2019/09/04 03:01:26;;;;;;;10.4;6.6;;;;;;;;;;;;;
2019/09/04 03:03:56;;;;;;;8.3;6;;;;;;;;;;;;;
2019/09/04 03:06:21;;;;;;;8.7;5.9;;;;;;;;;;;;;
2019/09/04 03:08:45;;;;;;;8.2;5.8;;;;;;;;;;;;;
2019/09/04 03:11:12;;;;;;;8.8;5.5;;;;;;;;;;;;;
2019/09/04 03:13:35;;;;;;;9.6;5.3;;;;;;;;;;;;;
2019/09/04 03:16:03;;;;;;;10.5;5.8;;;;;;;;;;;;;
2019/09/04 03:18:31;;;;;;;6.7;5.2;;;;;;;;;;;;;
2019/09/04 03:20:58;;;;;;;7.8;5.1;;;;;;;;;;;;;
2019/09/04 03:23:22;;;;;;;10.8;5.3;;;;;;;;;;;;;
2019/09/04 03:25:51;;;;;;;10;6.1;;;;;;;;;;;;;
2019/09/04 03:28:12;;;;;;;9.1;5.6;;;;;;;;;;;;;
2019/09/04 03:30:40;;;;;;;7.2;5.7;;;;;;;;;;;;;
2019/09/04 03:33:12;;;;;;;6.9;5.8;;;;;;;;;;;;;
2019/09/04 03:35:35;;;;;;;8.9;5.7;;;;;;;;;;;;;
2019/09/04 03:38:05;;;;;;;9.9;6;;;;;;;;;;;;;
2019/09/04 03:40:29;;;;;;;10;6.2;;;;;;;;;;;;;
2019/09/04 03:42:53;;;;;;;7.1;5.9;;;;;;;;;;;;;
2019/09/04 03:45:23;;;;;;;8.1;5.9;;;;;;;;;;;;;
2019/09/04 03:47:49;;;;;;;9.8;6.7;;;;;;;;;;;;;
2019/09/04 03:50:21;;;;;;;9.1;6.5;;;;;;;;;;;;;
2019/09/04 03:52:44;;;;;;;8.6;6.8;;;;;;;;;;;;;
2019/09/04 03:55:12;;;;;;;9.8;6;;;;;;;;;;;;;
2019/09/04 03:57:35;;;;;;;10.2;6.9;;;;;;;;;;;;;
2019/09/04 04:00:00;;;;;;;8.5;6.1;;;;;;;;;;;;;
2019/09/04 04:02:35;;;;;;;7.9;5.3;;;;;;;11;87.89453;942.655;;;;
2019/09/04 04:05:03;;;;;;;9.9;5.7;;;;;;;11.15;86.73633;942.6998;;;;
2019/09/04 04:07:32;;;;;;;9.9;5.6;;;;;;;11.13;86.99609;942.6485;;;;
2019/09/04 04:10:04;;;;;;;7.5;6.1;;;;;;;10.94;87.88379;942.6693;;;;
2019/09/04 04:12:45;;;;;;;7.5;5.9;;;;;;;10.85;88.32031;942.7292;;;;
2019/09/04 04:15:20;;;;;;;9.3;5.8;;;;;;;10.86;88.23438;942.6713;;;;
2019/09/04 04:17:51;;;;;;;11.2;6.4;;;;;;;10.88;87.90723;942.6637;;;;
2019/09/04 04:20:24;;;;;;;8.8;6.3;;;;;;;10.87;87.9834;942.6443;;;;
2019/09/04 04:23:22;;;;;;;12.6;6.9;;;;;;;10.72;88.70605;942.6353;;;;
2019/09/04 04:25:48;;;;;;;10.5;6.6;;;;;;;10.72;88.71875;942.6617;;;;
2019/09/04 04:28:12;;;;;;;9.9;6.5;;;;;;;10.61;89.35938;942.6035;;;;
2019/09/04 04:30:47;;;;;;;8.7;6.9;;;;;;;10.64;89.26172;942.5983;;;;
2019/09/04 04:33:17;;;;;;;8;6.4;;;;;;;10.75;89.30566;942.5291;;;;
2019/09/04 04:35:51;;;;;;;8.2;5.7;;;;;;;10.93;88.28125;942.6102;;;;
2019/09/04 04:38:22;;;;;;;8;6.3;;;;;;;10.64;89.84277;942.5934;;;;
2019/09/04 04:40:56;;;;;;;7.5;6;;;;;;;10.58;90.34668;942.5715;;;;
2019/09/04 04:43:26;;;;;;;8.8;6.5;;;;;;;10.53;90.51855;942.5834;;;;
2019/09/04 04:46:00;;;;;;;8.4;6.3;;;;;;;10.58;90.22168;942.5628;;;;
2019/09/04 04:48:34;;;;;;;8.6;6.3;;;;;;;10.51;90.70703;942.5147;;;;
2019/09/04 04:50:59;;;;;;;9.1;7.1;;;;;;;10.46;91.50781;942.4749;;;;
2019/09/04 04:53:33;;;;;;;8.1;5.8;;;;;;;10.66;89.83691;942.4975;;;;
2019/09/04 04:56:04;;;;;;;7;5.9;;;;;;;10.72;89.2793;942.5916;;;;
2019/09/04 04:58:35;;;;;;;9.9;6.1;;;;;;;10.61;89.4502;942.613;;;;
2019/09/04 05:01:17;;;;;;;9;5.4;;;;;;;10.67;89.2793;942.5836;;;;
2019/09/04 05:03:43;;;;;;;7.7;5.3;;;;;;;10.77;88.9209;942.6217;;;;
2019/09/04 05:06:23;;;;;;;8.3;6.1;;;;;;;10.79;89.33789;942.6053;;;;
2019/09/04 05:08:56;;;;;;;9.9;6.1;;;;;;;10.86;88.92969;942.5916;;;;
2019/09/04 05:11:26;;;;;;;7;5.2;;;;;;;11.05;87.85938;942.6394;;;;
2019/09/04 05:14:12;;;;;;;8.4;5.1;;;;;;;11.07;87.34863;942.6309;;;;
2019/09/04 05:16:47;;;;;;;7.8;5.1;;;;;;;11.15;87.66309;942.5069;;;;
2019/09/04 05:19:19;;;;;;;7.9;5.4;;;;;;;11.24;87.32617;942.5474;;;;
2019/09/04 05:21:47;;;;;;;7.6;5.2;;;;;;;11.18;88.04785;942.5447;;;;
2019/09/04 05:24:16;;;;;;;9.3;5.6;;;;;;;11.1;88.70313;942.5197;;;;
2019/09/04 05:26:49;;;;;;;7.5;5;;;;;;;11.27;87.76855;942.5105;;;;
2019/09/04 05:29:17;;;;;;;7.7;5.6;;;;;;;11.41;87.05176;942.4628;;;;
2019/09/04 05:31:52;;;;;;;6.7;5.4;;;;;;;11.35;87.31445;942.4238;;;;
2019/09/04 05:34:23;;;;;;;10.2;5.9;;;;;;;11.29;87.9668;942.4397;;;;
2019/09/04 05:36:53;;;;;;;9.1;5.8;;;;;;;11.45;87.2998;942.3519;;;;
2019/09/04 05:39:20;;;;;;;11.6;6.4;;;;;;;11.53;87.77539;942.3386;;;;
2019/09/04 05:42:01;;;;;;;10.8;5.7;;;;;;;11.77;87.26172;942.4255;;;;
2019/09/04 05:44:27;;;;;;;12;6.3;;;;;;;11.87;87.39648;942.4216;;;;
2019/09/04 05:47:01;;;;;;;10;6;;;;;;;11.94;87.61719;942.4048;;;;
2019/09/04 05:49:30;;;;;;;12.8;5.9;;;;;;;12;87.59375;942.32;;;;
2019/09/04 05:52:07;;;;;;;11.4;5.4;;;;;;;12.11;86.87305;942.3781;;;;
2019/09/04 05:54:42;;;;;;;11.7;6.1;;;;;;;12.19;87.08203;942.3318;;;;
2019/09/04 05:57:09;;;;;;;12.9;5.2;;;;;;;12.31;86.75195;942.2941;;;;
2019/09/04 05:59:47;;;;;;;8.2;4.3;;;;;;;12.39;85.72461;942.2484;;;;
2019/09/04 06:02:18;;;;;;;12.5;3.9;;;;;;;12.48;84.31836;942.244;;;;
2019/09/04 06:04:55;;;;;;;7.8;3.6;;;;;;;12.78;82.98926;942.15;;;;
2019/09/04 06:07:19;;;;;;;7.3;2.9;;;;;;;13.24;80.73242;942.1756;;;;
2019/09/04 06:09:51;;;;;;;5.9;2.6;;;;;;;14.14;77.05566;942.1728;;;;
2019/09/04 06:12:22;;;;;;;6.3;2.2;;;;;;;15.14;72.89453;942.1322;;;;
2019/09/04 06:14:54;;;;;;;6.1;2.1;;;;;;;16.02;69.02637;942.1064;;;;
2019/09/04 06:17:27;;;;;;;5.9;2.1;;;;;;;17.17;64.53809;942.0144;;;;
2019/09/04 06:19:55;;;;;;;5;2.4;;;;;;;17.33;65.47754;942.0518;;;;
2019/09/04 06:22:29;;;;;;;9.2;2.6;;;;;;;18.26;62.13965;941.9189;;;;
2019/09/04 06:25:18;;;;;;;4.3;2.4;;;;;;;18.44;59.31641;941.9842;;;;
2019/09/04 06:27:51;;;;;;;6.6;2;;;;;;;18.13;61.5293;941.9429;;;;
2019/09/04 06:30:11;;;;;;;8.3;1.9;;;;;;;18.61;59.21191;941.9236;;;;
2019/09/04 06:32:49;;;;;;;6;2.2;;;;;;;18.66;58.90527;941.8386;;;;
2019/09/04 06:35:20;;;;;;;5.2;2.1;;;;;;;18.14;60.73047;941.8452;;;;
2019/09/04 06:37:46;;;;;;;2.3;1.8;;;;;;;17.51;63.03125;941.8183;;;;
2019/09/04 06:40:23;;;;;;;3.4;2;;;;;;;17.29;63.93945;941.818;;;;
2019/09/04 06:42:58;;;;;;;5.5;2.4;;;;;;;16.92;66.11035;941.8235;;;;
2019/09/04 06:45:25;;;;;;;5.1;2.1;;;;;;;16.94;66.61133;941.7919;;;;
2019/09/04 06:47:57;;;;;;;6.8;2.2;;;;;;;16.93;67.07324;941.8016;;;;
2019/09/04 06:50:29;;;;;;;3.7;2;;;;;;;16.7;67.00391;941.7173;;;;
2019/09/04 06:52:54;;;;;;;3.2;2;;;;;;;16.51;67.4502;941.6749;;;;
2019/09/04 06:55:25;;;;;;;4.8;2.2;;;;;;;16.59;69.7666;941.688;;;;
2019/09/04 06:57:58;;;;;;;2.5;1.8;;;;;;;16.83;66.46875;941.6585;;;;
2019/09/04 07:00:22;;;;;;;3.2;1.8;;;;;;;17.43;64.98145;941.6356;;;;
2019/09/04 07:02:55;;;;;;;5.6;2.2;;;;;;;17.75;64.28711;941.5662;;;;
2019/09/04 07:05:38;;;;;;;3.5;2.1;;;;;;;18.13;61.66895;941.5536;;;;
2019/09/04 07:07:57;;;;;;;5.9;1.9;;;;;;;18.52;60.66602;941.5128;;;;
2019/09/04 07:10:31;;;;;;;3.6;2;;;;;;;19.32;59.14453;941.5019;;;;
2019/09/04 07:13:00;;;;;;;2.7;1.7;;;;;;;20.18;56.18945;941.4532;;;;
2019/09/04 07:15:28;;;;;;;4.3;2.1;;;;;;;20.85;53.87793;941.4866;;;;
2019/09/04 07:17:55;;;;;;;2.6;1.7;;;;;;;21.39;52.48145;941.4369;;;;
2019/09/04 07:20:28;;;;;;;4.5;1.7;;;;;;;21.81;51.8877;941.3794;;;;
2019/09/04 07:23:05;;;;;;;3.8;1.7;;;;;;;22.1;52.91699;941.3295;;;;
2019/09/04 07:25:29;;;;;;;5.3;1.6;;;;;;;23.27;50.59961;941.3262;;;;
2019/09/04 07:27:58;;;;;;;5.1;1.6;;;;;;;24.37;46.36523;941.2966;;;;
2019/09/04 07:33:00;;;;;;;4.4;1.7;;;;;;;25.68;42.82617;941.1965;;;;
2019/09/04 07:35:32;;;;;;;4.2;1.6;;;;;;;25.87;42.3125;941.1663;;;;
2019/09/04 07:38:05;;;;;;;4.1;1.5;;;;;;;26.98;39.33594;941.0929;;;;
2019/09/04 07:43:17;;;;;;;4.2;1.6;;;;;;;27.05;40.26758;940.9601;;;;
2019/09/04 07:45:42;;;;;;;4.2;1.4;;;;;;;26.95;39.52246;940.9548;;;;
2019/09/04 07:48:12;;;;;;;3;1.3;;;;;;;26.88;38.11816;940.8524;;;;
2019/09/04 07:50:39;;;;;;;4.7;1.6;;;;;;;27.34;37.80273;940.8998;;;;
2019/09/04 07:53:09;;;;;;;4.7;1.6;;;;;;;28.24;38.32813;940.7942;;;;
2019/09/04 07:55:44;;;;;;;4.9;1.5;;;;;;;28.46;35.625;940.7798;;;;
2019/09/04 07:58:12;;;;;;;3.5;1.5;;;;;;;28.03;36.96875;940.778;;;;
2019/09/04 08:00:40;;;;;;;3.4;1.3;;;;;;;27.57;37.67871;940.7468;;;;
2019/09/04 08:03:14;;;;;;;4.5;1.4;;;;;;;27.96;37.35547;940.7307;;;;
2019/09/04 08:05:58;;;;;;;3.4;1.2;;;;;;;28.98;34.77246;940.73;;;;
2019/09/04 08:08:33;;;;;;;2.2;1.2;;;;;;;29.1;35.1748;940.6729;;;;
2019/09/04 08:11:01;;;;;;;3.3;1.4;;;;;;;30.19;34.52051;940.6069;;;;
2019/09/04 08:13:34;;;;;;;3.1;1.4;;;;;;;31.29;32.15137;940.6761;;;;
2019/09/04 08:15:58;;;;;;;4.3;1.3;;;;;;;31.54;32.41992;940.6323;;;;
2019/09/04 08:18:36;;;;;;;1.9;1.1;;;;;;;32.18;30.04395;940.6085;;;;
2019/09/04 08:21:00;;;;;;;2.3;1.4;;;;;;;31.32;29.2334;940.5812;;;;
2019/09/04 08:23:31;;;;;;;2.4;1.3;;;;;;;30.69;31.35645;940.4661;;;;
2019/09/04 08:26:11;;;;;;;3;1.2;;;;;;;31.5;32.37012;940.491;;;;
2019/09/04 08:28:38;;;;;;;3.4;1.1;;;;;;;31.41;28.85645;940.4142;;;;
2019/09/04 08:31:07;;;;;;;2.7;1;;;;;;;30.21;30.39063;940.4603;;;;
2019/09/04 08:33:40;;;;;;;5.6;1.4;;;;;;;29.83;33.22852;940.4758;;;;
2019/09/04 08:35:59;;;;;;;3.6;1.2;;;;;;;29.93;36.42188;940.5056;;;;
2019/09/04 08:38:30;;;;;;;3.1;1.1;;;;;;;29.7;32.06152;940.4158;;;;
2019/09/04 08:41:01;;;;;;;3.5;1.3;;;;;;;30.49;32.42871;940.387;;;;
2019/09/04 08:43:29;;;;;;;3;1.3;;;;;;;30.18;35.16406;940.3886;;;;
2019/09/04 08:45:51;;;;;;;2.8;1.2;;;;;;;29.95;31.85352;940.324;;;;
2019/09/04 08:48:18;;;;;;;1.9;1.2;;;;;;;29.7;32.00293;940.2709;;;;
2019/09/04 08:50:53;;;;;;;2.4;1.2;;;;;;;29.54;33.93359;940.2275;;;;
2019/09/04 08:53:30;;;;;;;3.1;1.2;;;;;;;28.71;33.70605;940.224;;;;
2019/09/04 08:55:55;;;;;;;3;1.2;;;;;;;28.7;36.67871;940.216;;;;
2019/09/04 08:58:23;;;;;;;2.1;1.5;;;;;;;27.64;34.13574;940.1414;;;;
2019/09/04 09:00:58;;;;;;;2.6;1.4;;;;;;;26.47;36.31934;940.0427;;;;
2019/09/04 09:03:21;;;;;;;1.5;1;;;;;;;26.47;39.19629;940;;;;
2019/09/04 09:05:49;;;;;;;2.4;1.3;;;;;;;26.58;41.59766;940.0136;;;;
2019/09/04 09:08:23;;;;;;;4.1;1.3;;;;;;;27.03;36.38965;939.9261;;;;
2019/09/04 09:10:46;;;;;;;3.8;1.5;;;;;;;27.48;41.18359;939.9856;;;;
2019/09/04 09:13:19;;;;;;;2.8;1.3;;;;;;;27.24;40.46094;939.9077;;;;
2019/09/04 09:15:50;;;;;;;3.6;1.4;;;;;;;27.34;41.02832;939.9072;;;;
2019/09/04 09:18:15;;;;;;;1.8;1.3;;;;;;;27.17;36.02051;939.8497;;;;
2019/09/04 09:20:48;;;;;;;2.1;1.1;;;;;;;27.24;36.22754;939.8167;;;;
2019/09/04 09:23:19;;;;;;;2.3;1.3;;;;;;;27.55;34.70996;939.8038;;;;
2019/09/04 09:25:48;;;;;;;1.7;1.1;;;;;;;27.45;36.25684;939.8083;;;;
2019/09/04 09:28:15;;;;;;;1.8;1.2;;;;;;;27.89;35.8291;939.7738;;;;
2019/09/04 09:30:48;;;;;;;2.2;1.1;;;;;;;28.03;37.91992;939.7692;;;;
2019/09/04 09:33:15;;;;;;;1.7;1.2;;;;;;;28.14;33.86426;939.679;;;;
2019/09/04 09:35:43;;;;;;;2.7;1.3;;;;;;;28.56;33.86133;939.6628;;;;
2019/09/04 09:38:13;;;;;;;4.6;1.3;;;;;;;28.51;33.07227;939.6347;;;;
2019/09/04 09:40:39;;;;;;;6.2;1.3;;;;;;;28.3;33.99609;939.6022;;;;
2019/09/04 09:43:13;;;;;;;2.7;1.2;;;;;;;28.1;36.47559;939.5502;;;;
2019/09/04 09:45:45;;;;;;;5.2;1.4;;;;;;;27.25;41.04297;939.6209;;;;
2019/09/04 09:48:15;;;;;;;1.9;1.1;;;;;;;27.24;36.46484;939.5851;;;;
2019/09/04 09:50:57;;;;;;;4;1.4;;;;;;;27.27;40.09668;939.6156;;;;
2019/09/04 09:53:14;;;;;;;6.5;1.4;;;;;;;27.19;39.47363;939.5408;;;;
2019/09/04 09:55:42;;;;;;;4;1.3;;;;;;;27.17;42.45898;939.5446;;;;
2019/09/04 09:58:20;;;;;;;3;1.3;;;;;;;27.59;39.37793;939.5388;;;;
2019/09/04 10:00:56;;;;;;;2.6;1.3;;;;;;;28.01;41.20801;939.5476;;;;
2019/09/04 10:03:29;;;;;;;3.3;1.1;;;;;;;28.34;40.42969;939.4772;;;;
2019/09/04 10:06:01;;;;;;;3.6;1.2;;;;;;;28.47;38.08789;939.4722;;;;
2019/09/04 10:08:33;;;;;;;3.6;1.3;;;;;;;28.64;37.68555;939.4489;;;;
2019/09/04 10:11:01;;;;;;;2.9;1;;;;;;;28.23;38.35254;939.3569;;;;
2019/09/04 10:13:42;;;;;;;2.3;1;;;;;;;28.62;40.16992;939.3409;;;;
2019/09/04 10:16:10;;;;;;;2.8;1.2;;;;;;;28.3;37.96484;939.2715;;;;
2019/09/04 10:18:43;;;;;;;1.9;1.2;;;;;;;28.09;41.42969;939.2737;;;;
2019/09/04 10:21:19;;;;;;;3.1;1.2;;;;;;;28.06;41.31934;939.2381;;;;
2019/09/04 10:23:45;;;;;;;2.2;1.1;;;;;;;27.94;40.98828;939.2386;;;;
2019/09/04 10:26:15;;;;;;;2.9;1.3;;;;;;;28.24;41.7627;939.2191;;;;
2019/09/04 10:28:39;;;;;;;2.3;1.4;;;;;;;28.3;40.56836;939.2004;;;;
2019/09/04 10:31:07;;;;;;;2.8;1.2;;;;;;;28.4;41.61133;939.1479;;;;
2019/09/04 10:33:40;;;;;;;2;1.4;;;;;;;28.62;41.37109;939.0783;;;;
2019/09/04 10:36:18;;;;;;;7.6;1.4;;;;;;;28.66;41.94531;939.0076;;;;
2019/09/04 10:38:47;;;;;;;2.5;1.3;;;;;;;28.78;42.00391;939.0283;;;;
2019/09/04 10:41:22;;;;;;;2.4;1.3;;;;;;;28.73;40.79688;938.9716;;;;
2019/09/04 10:43:59;;;;;;;2.6;1.4;;;;;;;28.89;39.47949;938.947;;;;
2019/09/04 10:46:27;;;;;;;2.2;1.4;;;;;;;29.02;40.08594;938.976;;;;
2019/09/04 10:48:59;;;;;;;3.4;1.4;;;;;;;29.47;37.84961;938.8915;;;;
2019/09/04 10:51:24;;;;;;;2.4;1.4;;;;;;;29.43;38.88379;938.8621;;;;
2019/09/04 10:53:53;;;;;;;3.7;1.8;;;;;;;29.46;38.39746;938.8755;;;;
2019/09/04 10:56:25;;;;;;;2.5;1.4;;;;;;;29.82;36.8291;938.8218;;;;
2019/09/04 10:59:16;;;;;;;3.8;2;;;;;;;30.01;37.58398;938.7994;;;;
2019/09/04 11:01:27;;;;;;;3.9;1.5;;;;;;;30.05;36.89551;938.7723;;;;
2019/09/04 11:04:07;;;;;;;2.8;1.4;;;;;;;29.79;36.9707;938.722;;;;
2019/09/04 11:09:06;;;;;;;2.7;1.4;;;;;;;29.32;37.38379;938.7119;;;;
2019/09/04 11:11:39;;;;;;;2.5;1.3;;;;;;;29.4;37.46289;938.6788;;;;
2019/09/04 11:14:09;;;;;;;2.2;1.4;;;;;;;29.59;36.0957;938.6448;;;;
2019/09/04 11:16:34;;;;;;;2.5;1.1;;;;;;;29.2;38.63672;938.6345;;;;
2019/09/04 11:19:26;;;;;;;2.9;1.5;;;;;;;29.73;39.23047;938.6055;;;;
2019/09/04 11:21:58;;;;;;;2.6;1.4;;;;;;;29.82;36.2207;938.5591;;;;
2019/09/04 11:24:30;;;;;;;2.1;1.4;;;;;;;30.24;37.62793;938.5364;;;;
2019/09/04 11:26:56;;;;;;;3.2;1.4;;;;;;;30.36;36.43164;938.4813;;;;
2019/09/04 11:29:30;;;;;;;4.4;1.5;;;;;;;30.32;35.87988;938.4951;;;;
2019/09/04 11:32:10;;;;;;;2.6;1.3;;;;;;;30.21;36.33691;938.4378;;;;
2019/09/04 11:34:45;;;;;;;6;1.4;;;;;;;29.87;37.20313;938.4044;;;;
2019/09/04 11:37:17;;;;;;;3.1;1.6;;;;;;;29.46;39.75586;938.3897;;;;
2019/09/04 11:39:49;;;;;;;2.2;1.3;;;;;;;29.09;40.12793;938.3502;;;;
2019/09/04 11:42:23;;;;;;;2;1.2;;;;;;;28.93;40.51855;938.3318;;;;
2019/09/04 11:44:55;;;;;;;3;1.3;;;;;;;28.46;38.1582;938.2996;;;;
2019/09/04 11:47:17;;;;;;;3.6;1.2;;;;;;;28.15;41.07813;938.2338;;;;
2019/09/04 11:49:50;;;;;;;3.6;1.3;;;;;;;28.35;42.52246;938.2155;;;;
2019/09/04 11:52:17;;;;;;;2.4;1.2;;;;;;;28.28;42.75391;938.1997;;;;
2019/09/04 11:54:47;;;;;;;2.6;1.3;;;;;;;28.25;39.26855;938.1613;;;;
2019/09/04 11:57:11;;;;;;;1.5;1.1;;;;;;;28.15;37.34668;938.1591;;;;
2019/09/04 11:59:45;;;;;;;3.3;1.3;;;;;;;27.77;39.4873;938.0944;;;;
2019/09/04 12:02:17;;;;;;;2.6;1.2;;;;;;;28.01;39.56934;938.072;;;;
2019/09/04 12:04:51;;;;;;;1.7;1.2;;;;;;;27.97;36.76074;938.0642;;;;
2019/09/04 12:07:29;;;;;;;1.8;1.2;;;;;;;28.25;35.37012;938.0154;;;;
2019/09/04 12:10:00;;;;;;;1.8;1.1;;;;;;;28.25;36.9502;937.9925;;;;
2019/09/04 12:12:30;;;;;;;3.3;1.2;;;;;;;28.12;34.69434;937.9261;;;;
2019/09/04 12:15:06;;;;;;;2.9;1.3;;;;;;;28.11;36.19043;937.9381;;;;
2019/09/04 12:17:35;;;;;;;2.3;1.4;;;;;;;28.2;37.71973;937.9612;;;;
2019/09/04 12:20:01;;;;;;;2.5;1.5;;;;;;;28.1;35.83398;937.8782;;;;
2019/09/04 12:22:29;;;;;;;2.9;1.3;;;;;;;28;34.98242;937.9042;;;;
2019/09/04 12:25:14;;;;;;;2.2;1.1;;;;;;;28;35.24414;937.8525;;;;
2019/09/04 12:27:47;;;;;;;2.7;1.2;;;;;;;28.01;37.91699;937.8184;;;;
2019/09/04 12:30:22;;;;;;;2.3;1.3;;;;;;;28.09;37.04492;937.7665;;;;
2019/09/04 12:33:15;;;;;;;2.1;1.2;;;;;;;28.18;36.33887;937.7308;;;;
2019/09/04 12:35:47;;;;;;;2.3;1.3;;;;;;;27.97;37.49805;937.6473;;;;
2019/09/04 12:38:17;;;;;;;2.7;1.3;;;;;;;27.99;36.58496;937.6576;;;;
2019/09/04 12:40:44;;;;;;;2.1;1.3;;;;;;;27.64;34.50391;937.6546;;;;
2019/09/04 12:43:10;;;;;;;2.7;1.2;;;;;;;27.71;36.46777;937.694;;;;
2019/09/04 12:46:17;;;;;;;2.3;1.1;;;;;;;27.64;33.45898;937.6346;;;;
2019/09/04 12:48:37;;;;;;;3.2;1.2;;;;;;;27.82;34.74316;937.6606;;;;
2019/09/04 12:54:12;;;;;;;2.8;1.2;;;;;;;27.39;37.08203;937.6755;;;;
2019/09/04 12:56:51;;;;;;;1.3;1;;;;;;;27.54;35.33887;937.5634;;;;
2019/09/04 12:59:19;;;;;;;3.5;1.4;;;;;;;27.24;36.90332;937.5775;;;;
2019/09/04 13:01:43;;;;;;;2;1.2;;;;;;;27.26;37.62988;937.5872;;;;
2019/09/04 13:04:10;;;;;;;5.7;1.4;;;;;;;27.25;37.59277;937.5524;;;;
2019/09/04 13:06:42;;;;;;;3.9;1.4;;;;;;;27.27;39.125;937.6118;;;;
2019/09/04 13:09:15;;;;;;;4;1.4;;;;;;;27.08;37.42383;937.5547;;;;
2019/09/04 13:11:51;;;;;;;1.9;1.2;;;;;;;27.05;38.63086;937.5259;;;;
2019/09/04 13:14:26;;;;;;;2.7;1.3;;;;;;;27.14;37.8916;937.5168;;;;
2019/09/04 13:16:59;;;;;;;4.6;1.3;;;;;;;27.33;39.14063;937.4739;;;;
2019/09/04 13:19:36;;;;;;;2.1;1.3;;;;;;;27.05;38.72656;937.4727;;;;
2019/09/04 13:22:09;;;;;;;1.8;1.3;;;;;;;27.07;40.07813;937.4293;;;;
2019/09/04 13:24:39;;;;;;;4.2;1.3;;;;;;;27.12;39.7041;937.3943;;;;
2019/09/04 13:27:19;;;;;;;2.6;1.3;;;;;;;26.9;40.58496;937.3792;;;;
2019/09/04 13:29:37;;;;;;;4.2;1.4;;;;;;;27.11;41.95605;937.4277;;;;
2019/09/04 13:32:17;;;;;;;2.8;1.4;;;;;;;27.4;40.29785;937.3059;;;;
2019/09/04 13:34:53;;;;;;;2.2;1.4;;;;;;;27.15;40.50098;937.3472;;;;
2019/09/04 13:37:28;;;;;;;2.1;1.3;;;;;;;27.22;40.81543;937.371;;;;
2019/09/04 13:39:59;;;;;;;3.2;1.4;;;;;;;27.34;41.83496;937.2597;;;;
2019/09/04 13:42:29;;;;;;;6;2;;;;;;;27.42;41.73535;937.291;;;;
2019/09/04 13:45:00;;;;;;;4.4;1.7;;;;;;;27.13;41.10352;937.2794;;;;
2019/09/04 13:47:34;;;;;;;3.7;1.5;;;;;;;26.8;41.47656;937.1956;;;;
2019/09/04 13:49:58;;;;;;;3.8;1.7;;;;;;;27.04;43.88086;937.2849;;;;
2019/09/04 13:52:25;;;;;;;3.6;1.4;;;;;;;26.91;43.03906;937.2783;;;;
2019/09/04 13:54:57;;;;;;;4.9;1.6;;;;;;;26.98;42.40527;937.2759;;;;
2019/09/04 13:57:38;;;;;;;2.1;1.4;;;;;;;26.92;42.34082;937.1859;;;;
2019/09/04 14:00:03;;;;;;;5.7;1.4;;;;;;;27.04;43.51367;937.1711;;;;
2019/09/04 14:02:31;;;;;;;3.1;1.5;;;;;;;27.06;41.24023;937.2219;;;;
2019/09/04 14:05:02;;;;;;;3.3;1.5;;;;;;;27.07;41.01465;937.1507;;;;
2019/09/04 14:07:32;;;;;;;3.4;1.4;;;;;;;27.01;42.20605;937.1489;;;;
2019/09/04 14:09:59;;;;;;;2.4;1.4;;;;;;;27.09;43.68457;937.1158;;;;
2019/09/04 14:12:25;;;;;;;4;1.5;;;;;;;27.1;42.03809;937.0889;;;;
2019/09/04 14:14:54;;;;;;;2.3;1.3;;;;;;;27.14;41.7207;937.095;;;;
2019/09/04 14:17:20;;;;;;;2.5;1.5;;;;;;;27.19;43.05371;937.1039;;;;
2019/09/04 14:20:01;;;;;;;4.2;1.5;;;;;;;27.13;41.53125;937.0937;;;;
2019/09/04 14:22:36;;;;;;;2.5;1.4;;;;;;;27.11;41.24414;937.0376;;;;
2019/09/04 14:24:58;;;;;;;4.7;1.5;;;;;;;26.75;43.04688;937.0784;;;;
2019/09/04 14:27:31;;;;;;;3.3;1.5;;;;;;;26.79;43.3584;937.0605;;;;
2019/09/04 14:30:05;;;;;;;4.7;1.7;;;;;;;26.88;43.4873;937.06;;;;
2019/09/04 14:32:34;;;;;;;2.4;1.4;;;;;;;26.75;42.91699;937.079;;;;
2019/09/04 14:35:06;;;;;;;2;1.4;;;;;;;26.68;42.4834;937.0583;;;;
2019/09/04 14:37:41;;;;;;;2.5;1.7;;;;;;;26.68;43.00488;937.0853;;;;
2019/09/04 14:40:10;;;;;;;2.7;1.5;;;;;;;26.68;43.91699;937.0889;;;;
2019/09/04 14:42:51;;;;;;;3;1.5;;;;;;;26.41;43.58203;937.0759;;;;
2019/09/04 14:45:32;;;;;;;4.6;1.6;;;;;;;26.37;44.5498;937.0602;;;;
2019/09/04 14:48:06;;;;;;;3.1;1.9;;;;;;;26.34;45.52832;937.0925;;;;
2019/09/04 14:50:57;;;;;;;3.7;1.6;;;;;;;26.26;45.25977;937.0691;;;;
2019/09/04 14:54:18;;;;;;;6;2.1;;;;;;;26.27;45.28516;937.0274;;;;
2019/09/04 14:56:54;;;;;;;3.9;2;;;;;;;26.28;46.7998;937.0369;;;;
2019/09/04 15:02:18;;;;;;;3.5;1.8;;;;;;;26.26;46.33594;937.0243;;;;
2019/09/04 15:04:46;;;;;;;4.1;1.8;;;;;;;26.15;47.4375;936.9732;;;;
2019/09/04 15:07:20;;;;;;;3;1.7;;;;;;;25.98;47.20605;936.8883;;;;
2019/09/04 15:09:50;;;;;;;4.4;1.7;;;;;;;26;46.57031;936.9458;;;;
2019/09/04 15:12:28;;;;;;;4.3;1.8;;;;;;;25.89;46.83105;936.9411;;;;
2019/09/04 15:14:55;;;;;;;3.3;1.7;;;;;;;25.8;47.23535;936.9501;;;;
2019/09/04 15:17:18;;;;;;;3.4;1.7;;;;;;;25.87;47.31348;936.9771;;;;
2019/09/04 15:19:43;;;;;;;4.4;1.7;;;;;;;25.75;47.04199;936.9313;;;;
2019/09/04 15:22:15;;;;;;;3.7;1.8;;;;;;;25.58;48.54688;936.952;;;;
2019/09/04 15:24:40;;;;;;;3.5;1.8;;;;;;;25.46;47.80176;936.9481;;;;
2019/09/04 15:27:09;;;;;;;4.1;1.6;;;;;;;25.37;47.75684;936.8056;;;;
2019/09/04 15:29:38;;;;;;;3.7;1.8;;;;;;;25.33;47.33984;936.8843;;;;
2019/09/04 15:32:15;;;;;;;3.4;1.7;;;;;;;25.3;48.16309;936.8806;;;;
2019/09/04 15:34:40;;;;;;;3.7;1.7;;;;;;;25.13;48.29688;936.8286;;;;
2019/09/04 15:37:05;;;;;;;4.6;1.9;;;;;;;25.1;48.89648;936.8431;;;;
2019/09/04 15:39:47;;;;;;;2.6;1.8;;;;;;;25.1;49.37988;936.8943;;;;
2019/09/04 15:42:21;;;;;;;4.9;1.7;;;;;;;25.09;49.22461;936.8879;;;;
2019/09/04 15:45:01;;;;;;;3.6;1.8;;;;;;;25.1;49.72168;936.9025;;;;
2019/09/04 15:47:28;;;;;;;4.5;1.8;;;;;;;25.07;49.50684;936.9049;;;;
2019/09/04 15:50:02;;;;;;;3.1;1.9;;;;;;;25;49.85254;936.8862;;;;
2019/09/04 15:52:31;;;;;;;3.2;1.8;;;;;;;24.91;50.71484;936.8008;;;;
2019/09/04 15:54:53;;;;;;;5;1.8;;;;;;;24.83;50.09375;936.8563;;;;
2019/09/04 15:57:19;;;;;;;5.8;2.1;;;;;;;24.64;50.66211;936.8636;;;;
2019/09/04 15:59:44;;;;;;;2.8;1.7;;;;;;;24.74;51.22754;936.7717;;;;
2019/09/04 16:02:14;;;;;;;4.8;1.9;;;;;;;24.59;51.08105;936.8478;;;;
2019/09/04 16:04:59;;;;;;;3.1;2;;;;;;;24.33;51.61523;936.8304;;;;
2019/09/04 16:07:28;;;;;;;2.4;1.8;;;;;;;24.48;51.76367;936.8375;;;;
2019/09/04 16:09:54;;;;;;;6.3;2.1;;;;;;;24.39;51.57617;936.843;;;;
2019/09/04 16:12:27;;;;;;;3.4;1.9;;;;;;;24.31;52.06152;936.85;;;;
2019/09/04 16:15:16;;;;;;;3.6;2.1;;;;;;;24.27;51.91504;936.8458;;;;